createdAt,value
2018-08-16T00:01:16.569Z,19.87
2018-08-16T00:03:44.094Z,19.85
2018-08-16T00:06:11.644Z,19.82
2018-08-16T00:08:39.190Z,19.82
2018-08-16T00:11:06.703Z,19.78
2018-08-16T00:13:34.236Z,19.79
2018-08-16T00:16:01.772Z,19.79
2018-08-16T00:18:29.310Z,19.76
2018-08-16T00:20:56.843Z,19.70
2018-08-16T00:23:24.391Z,19.68
2018-08-16T00:25:51.902Z,19.62
2018-08-16T00:28:19.439Z,19.56
2018-08-16T00:30:46.949Z,19.58
2018-08-16T00:33:14.492Z,19.56
2018-08-16T00:35:42.021Z,19.51
2018-08-16T00:38:09.555Z,19.51
2018-08-16T00:40:37.072Z,19.54
2018-08-16T00:43:04.623Z,19.57
2018-08-16T00:45:32.128Z,19.67
2018-08-16T00:47:59.663Z,19.74
2018-08-16T00:50:27.172Z,19.68
2018-08-16T00:52:54.701Z,19.66
2018-08-16T00:55:22.198Z,19.71
2018-08-16T00:57:49.731Z,19.76
2018-08-16T01:00:17.558Z,19.79
2018-08-16T01:02:45.448Z,19.77
2018-08-16T01:05:13.386Z,19.77
2018-08-16T01:07:41.013Z,19.79
2018-08-16T01:10:09.331Z,19.77
2018-08-16T01:12:36.848Z,19.80
2018-08-16T01:15:05.300Z,19.84
2018-08-16T01:17:32.836Z,19.88
2018-08-16T01:20:00.362Z,19.89
2018-08-16T01:22:27.908Z,19.95
2018-08-16T01:24:55.440Z,19.98
2018-08-16T01:27:22.988Z,19.99
2018-08-16T01:29:50.497Z,20.01
2018-08-16T01:32:18.043Z,20.06
2018-08-16T01:34:45.539Z,20.05
2018-08-16T01:37:13.091Z,19.99
2018-08-16T01:39:40.604Z,19.99
2018-08-16T01:42:08.120Z,20.05
2018-08-16T01:44:35.656Z,20.07
2018-08-16T01:47:03.151Z,20.05
2018-08-16T01:49:33.148Z,20.04
2018-08-16T01:52:00.732Z,19.97
2018-08-16T01:54:28.873Z,19.85
2018-08-16T01:56:56.508Z,19.79
2018-08-16T01:59:24.054Z,19.76
2018-08-16T02:01:52.139Z,19.83
2018-08-16T02:04:19.725Z,19.85
2018-08-16T02:06:47.671Z,19.82
2018-08-16T02:09:15.227Z,19.82
2018-08-16T02:11:42.741Z,19.85
2018-08-16T02:14:10.268Z,19.85
2018-08-16T02:16:38.308Z,19.85
2018-08-16T02:19:05.895Z,19.92
2018-08-16T02:21:33.412Z,19.95
2018-08-16T02:24:01.416Z,19.95
2018-08-16T02:26:28.956Z,19.97
2018-08-16T02:28:56.479Z,19.93
2018-08-16T02:31:23.988Z,19.92
2018-08-16T02:33:51.662Z,19.92
2018-08-16T02:36:19.182Z,19.95
2018-08-16T02:38:46.708Z,20.00
2018-08-16T02:41:14.220Z,19.98
2018-08-16T02:43:41.745Z,19.92
2018-08-16T02:46:09.479Z,19.92
2018-08-16T02:48:37.048Z,19.97
2018-08-16T02:51:04.569Z,19.97
2018-08-16T02:53:32.109Z,20.01
2018-08-16T02:55:59.652Z,19.98
2018-08-16T02:58:27.219Z,19.94
2018-08-16T03:00:54.731Z,19.98
2018-08-16T03:03:22.270Z,20.00
2018-08-16T03:05:49.792Z,19.98
2018-08-16T03:08:17.340Z,20.04
2018-08-16T03:10:44.848Z,20.10
2018-08-16T03:13:12.363Z,20.11
2018-08-16T03:15:39.912Z,20.06
2018-08-16T03:18:07.496Z,20.05
2018-08-16T03:20:35.032Z,19.98
2018-08-16T03:23:02.547Z,20.03
2018-08-16T03:25:30.337Z,19.91
2018-08-16T03:27:57.855Z,19.92
2018-08-16T03:30:25.384Z,19.94
2018-08-16T03:32:52.903Z,19.95
2018-08-16T03:35:20.509Z,19.98
2018-08-16T03:37:47.958Z,19.99
2018-08-16T03:40:15.516Z,19.98
2018-08-16T03:42:43.043Z,19.97
2018-08-16T03:45:10.576Z,20.02
2018-08-16T03:47:38.377Z,20.00
2018-08-16T03:50:06.036Z,20.01
2018-08-16T03:52:33.627Z,20.01
2018-08-16T03:55:01.191Z,20.05
2018-08-16T03:57:28.696Z,20.07
2018-08-16T03:59:56.229Z,20.06
2018-08-16T04:02:23.738Z,20.05
2018-08-16T04:04:51.268Z,20.03
2018-08-16T04:07:18.817Z,20.03
2018-08-16T04:09:46.327Z,20.04
2018-08-16T04:12:13.844Z,20.05
2018-08-16T04:14:41.385Z,20.06
2018-08-16T04:17:08.946Z,20.12
2018-08-16T04:19:36.485Z,20.05
2018-08-16T04:22:04.004Z,20.00
2018-08-16T04:24:31.532Z,20.02
2018-08-16T04:26:59.044Z,20.06
2018-08-16T04:29:26.592Z,20.05
2018-08-16T04:31:54.116Z,20.06
2018-08-16T04:34:21.632Z,20.08
2018-08-16T04:36:49.167Z,20.07
2018-08-16T04:39:16.691Z,20.06
2018-08-16T04:41:44.448Z,20.03
2018-08-16T04:44:11.769Z,19.98
2018-08-16T04:46:39.295Z,19.95
2018-08-16T04:49:06.832Z,19.89
2018-08-16T04:51:34.372Z,19.93
2018-08-16T04:54:01.875Z,19.96
2018-08-16T04:56:29.412Z,19.91
2018-08-16T04:58:56.924Z,19.82
2018-08-16T05:01:24.456Z,19.76
2018-08-16T05:03:51.964Z,19.65
2018-08-16T05:06:19.488Z,19.66
2018-08-16T05:08:46.992Z,19.71
2018-08-16T05:11:14.570Z,19.86
2018-08-16T05:13:42.087Z,19.93
2018-08-16T05:16:09.613Z,20.06
2018-08-16T05:18:37.216Z,20.17
2018-08-16T05:21:04.747Z,20.19
2018-08-16T05:23:32.255Z,20.20
2018-08-16T05:25:59.768Z,20.13
2018-08-16T05:28:27.295Z,20.17
2018-08-16T05:30:54.811Z,20.13
2018-08-16T05:33:22.383Z,20.17
2018-08-16T05:35:49.892Z,20.21
2018-08-16T05:38:17.424Z,20.19
2018-08-16T05:40:44.923Z,20.25
2018-08-16T05:43:12.524Z,20.23
2018-08-16T05:45:39.983Z,20.30
2018-08-16T05:48:07.524Z,20.51
2018-08-16T05:50:35.252Z,20.70
2018-08-16T05:53:02.770Z,20.72
2018-08-16T05:55:30.264Z,20.81
2018-08-16T05:57:57.784Z,20.95
2018-08-16T06:00:25.279Z,21.13
2018-08-16T06:02:52.872Z,21.28
2018-08-16T06:05:20.375Z,21.51
2018-08-16T06:07:47.908Z,21.59
2018-08-16T06:10:15.411Z,21.73
2018-08-16T06:12:43.062Z,21.84
2018-08-16T06:15:10.680Z,21.94
2018-08-16T06:17:38.216Z,22.17
2018-08-16T06:20:07.132Z,22.21
2018-08-16T06:22:34.635Z,22.43
2018-08-16T06:25:02.163Z,22.42
2018-08-16T06:27:29.691Z,22.73
2018-08-16T06:29:57.211Z,22.82
2018-08-16T06:32:24.715Z,22.91
2018-08-16T06:34:52.235Z,23.06
2018-08-16T06:37:19.743Z,23.05
2018-08-16T06:39:47.271Z,22.97
2018-08-16T06:42:14.788Z,23.18
2018-08-16T06:44:42.307Z,23.12
2018-08-16T06:47:13.695Z,23.04
2018-08-16T06:49:41.240Z,23.15
2018-08-16T06:52:08.752Z,22.93
2018-08-16T06:54:36.273Z,22.96
2018-08-16T06:57:03.772Z,23.01
2018-08-16T06:59:31.308Z,23.12
2018-08-16T07:01:58.816Z,23.18
2018-08-16T07:04:26.392Z,23.12
2018-08-16T07:06:53.892Z,23.26
2018-08-16T07:09:21.414Z,23.42
2018-08-16T07:11:48.910Z,23.35
2018-08-16T07:14:16.447Z,23.43
2018-08-16T07:16:43.947Z,23.32
2018-08-16T07:19:11.827Z,23.41
2018-08-16T07:21:39.333Z,23.35
2018-08-16T07:24:06.859Z,23.45
2018-08-16T07:26:34.430Z,23.54
2018-08-16T07:29:01.957Z,23.54
2018-08-16T07:31:29.450Z,23.51
2018-08-16T07:33:57.021Z,23.73
2018-08-16T07:36:24.548Z,23.66
2018-08-16T07:38:52.055Z,23.64
2018-08-16T07:41:19.640Z,23.66
2018-08-16T07:43:47.159Z,23.74
2018-08-16T07:46:14.806Z,23.86
2018-08-16T07:48:42.307Z,24.05
2018-08-16T07:51:09.874Z,24.06
2018-08-16T07:53:37.364Z,24.05
2018-08-16T07:56:04.967Z,24.16
2018-08-16T07:58:32.615Z,24.35
2018-08-16T08:01:00.071Z,24.44
2018-08-16T08:03:27.672Z,24.49
2018-08-16T08:05:55.215Z,24.50
2018-08-16T08:08:22.722Z,24.59
2018-08-16T08:10:50.252Z,24.54
2018-08-16T08:13:17.759Z,24.32
2018-08-16T08:15:45.373Z,24.24
2018-08-16T08:18:12.884Z,24.35
2018-08-16T08:20:40.408Z,24.54
2018-08-16T08:23:08.450Z,24.64
2018-08-16T08:25:36.012Z,24.84
2018-08-16T08:28:03.527Z,25.06
2018-08-16T08:30:31.055Z,25.08
2018-08-16T08:32:58.558Z,25.23
2018-08-16T08:35:26.103Z,25.24
2018-08-16T08:37:59.672Z,25.26
2018-08-16T08:40:27.197Z,25.25
2018-08-16T08:42:54.908Z,25.29
2018-08-16T08:45:22.447Z,25.41
2018-08-16T08:47:54.192Z,25.51
2018-08-16T08:50:21.831Z,25.63
2018-08-16T08:52:49.280Z,25.67
2018-08-16T08:55:22.520Z,25.77
2018-08-16T08:57:55.691Z,25.85
2018-08-16T09:00:24.288Z,26.10
2018-08-16T09:02:51.805Z,26.19
2018-08-16T09:05:19.331Z,26.17
2018-08-16T09:07:46.843Z,26.12
2018-08-16T09:11:18.516Z,26.17
2018-08-16T09:13:53.000Z,26.08
2018-08-16T09:16:21.251Z,26.11
2018-08-16T09:18:48.763Z,26.25
2018-08-16T09:21:16.664Z,26.31
2018-08-16T09:23:44.234Z,26.31
2018-08-16T09:26:17.063Z,26.44
2018-08-16T09:28:44.569Z,26.53
2018-08-16T09:31:18.016Z,26.51
2018-08-16T09:33:51.019Z,26.58
2018-08-16T09:36:18.572Z,26.76
2018-08-16T09:38:46.083Z,26.77
2018-08-16T09:41:13.603Z,26.75
2018-08-16T09:43:41.147Z,26.81
2018-08-16T09:47:12.591Z,26.82
2018-08-16T09:49:42.476Z,26.71
2018-08-16T09:52:10.668Z,26.76
2018-08-16T09:54:38.222Z,26.97
2018-08-16T09:57:06.927Z,27.02
2018-08-16T09:59:34.442Z,27.20
2018-08-16T10:02:02.001Z,27.39
2018-08-16T10:04:29.875Z,27.47
2018-08-16T10:06:57.550Z,27.58
2018-08-16T10:09:26.140Z,27.70
2018-08-16T10:11:54.083Z,27.70
2018-08-16T10:14:21.871Z,27.83
2018-08-16T10:16:49.392Z,27.79
2018-08-16T10:19:16.919Z,27.72
2018-08-16T10:21:44.444Z,27.84
2018-08-16T10:24:11.971Z,27.89
2018-08-16T10:26:39.546Z,28.02
2018-08-16T10:29:07.421Z,27.97
2018-08-16T10:31:34.931Z,28.05
2018-08-16T10:34:02.988Z,28.15
2018-08-16T10:36:30.496Z,28.03
2018-08-16T10:38:58.037Z,28.06
2018-08-16T10:41:25.543Z,28.11
2018-08-16T10:43:53.092Z,28.01
2018-08-16T10:46:20.640Z,28.02
2018-08-16T10:48:48.199Z,28.18
2018-08-16T10:51:15.708Z,28.21
2018-08-16T10:53:43.256Z,28.26
2018-08-16T10:56:10.761Z,28.35
2018-08-16T10:58:38.299Z,28.23
2018-08-16T11:01:05.813Z,28.31
2018-08-16T11:03:33.352Z,28.64
2018-08-16T11:06:00.859Z,28.74
2018-08-16T11:08:28.395Z,28.76
2018-08-16T11:10:55.903Z,28.80
2018-08-16T11:13:23.464Z,28.84
2018-08-16T11:15:50.972Z,28.86
2018-08-16T11:18:18.507Z,29.00
2018-08-16T11:20:46.018Z,29.10
2018-08-16T11:23:13.624Z,29.06
2018-08-16T11:25:41.143Z,29.06
2018-08-16T11:28:09.100Z,29.10
2018-08-16T11:30:36.879Z,29.13
2018-08-16T11:33:04.417Z,29.11
2018-08-16T11:35:31.947Z,29.13
2018-08-16T11:37:59.596Z,29.20
2018-08-16T11:40:27.068Z,29.14
2018-08-16T11:42:54.592Z,29.10
2018-08-16T11:45:22.132Z,29.05
2018-08-16T11:47:49.655Z,29.09
2018-08-16T11:50:17.215Z,29.06
2018-08-16T11:52:44.731Z,29.02
2018-08-16T11:55:12.268Z,29.09
2018-08-16T11:57:39.776Z,29.19
2018-08-16T12:00:07.359Z,29.29
2018-08-16T12:02:34.893Z,29.34
2018-08-16T12:05:02.422Z,29.59
2018-08-16T12:07:29.929Z,29.82
2018-08-16T12:09:57.476Z,29.84
2018-08-16T12:12:25.004Z,29.74
2018-08-16T12:14:52.533Z,29.61
2018-08-16T12:17:20.044Z,29.68
2018-08-16T12:19:47.563Z,29.88
2018-08-16T12:22:15.072Z,29.75
2018-08-16T12:24:42.636Z,29.72
2018-08-16T12:27:11.086Z,29.68
2018-08-16T12:29:38.622Z,29.74
2018-08-16T12:32:06.133Z,29.68
2018-08-16T12:34:34.028Z,29.71
2018-08-16T12:37:01.567Z,29.78
2018-08-16T12:39:29.096Z,29.97
2018-08-16T12:41:56.679Z,29.93
2018-08-16T12:44:24.233Z,29.91
2018-08-16T12:46:51.767Z,29.96
2018-08-16T12:49:19.320Z,30.01
2018-08-16T12:51:46.881Z,30.01
2018-08-16T12:54:14.449Z,30.04
2018-08-16T12:56:41.997Z,29.99
2018-08-16T12:59:09.526Z,29.91
2018-08-16T13:01:37.074Z,30.03
2018-08-16T13:04:04.760Z,30.07
2018-08-16T13:06:32.369Z,30.11
2018-08-16T13:08:59.957Z,30.30
2018-08-16T13:11:27.455Z,30.42
2018-08-16T13:13:54.976Z,30.55
2018-08-16T13:16:22.520Z,30.44
2018-08-16T13:18:50.028Z,30.46
2018-08-16T13:21:17.556Z,30.45
2018-08-16T13:23:45.170Z,30.42
2018-08-16T13:26:12.652Z,30.31
2018-08-16T13:28:40.183Z,30.31
2018-08-16T13:31:07.726Z,30.41
2018-08-16T13:33:35.248Z,30.53
2018-08-16T13:36:02.791Z,30.49
2018-08-16T13:38:30.304Z,30.42
2018-08-16T13:40:57.863Z,30.47
2018-08-16T13:43:25.392Z,30.53
2018-08-16T13:45:52.980Z,30.55
2018-08-16T13:48:20.624Z,30.60
2018-08-16T13:50:48.208Z,30.64
2018-08-16T13:53:15.719Z,30.65
2018-08-16T13:55:43.263Z,30.68
2018-08-16T13:58:10.900Z,30.71
2018-08-16T14:00:38.533Z,30.70
2018-08-16T14:03:06.171Z,30.60
2018-08-16T14:05:33.853Z,30.70
2018-08-16T14:08:01.972Z,30.71
2018-08-16T14:10:29.600Z,30.69
2018-08-16T14:12:57.318Z,30.62
2018-08-16T14:15:24.871Z,30.71
2018-08-16T14:17:52.411Z,30.60
2018-08-16T14:20:19.959Z,30.62
2018-08-16T14:22:47.535Z,30.60
2018-08-16T14:25:15.100Z,30.66
2018-08-16T14:27:42.641Z,30.65
2018-08-16T14:30:10.199Z,30.83
2018-08-16T14:32:37.980Z,30.64
2018-08-16T14:35:05.545Z,30.73
2018-08-16T14:37:33.084Z,30.86
2018-08-16T14:40:00.604Z,30.86
2018-08-16T14:42:28.221Z,30.88
2018-08-16T14:44:55.815Z,30.98
2018-08-16T14:47:23.728Z,30.92
2018-08-16T14:49:51.279Z,30.85
2018-08-16T14:52:18.837Z,30.94
2018-08-16T14:54:46.355Z,30.93
2018-08-16T14:57:13.899Z,30.78
2018-08-16T14:59:41.416Z,30.79
2018-08-16T15:02:08.969Z,30.76
2018-08-16T15:04:36.483Z,30.71
2018-08-16T15:07:04.916Z,30.67
2018-08-16T15:09:32.484Z,30.70
2018-08-16T15:12:00.027Z,30.71
2018-08-16T15:14:27.540Z,30.74
2018-08-16T15:16:55.072Z,30.74
2018-08-16T15:19:22.588Z,30.80
2018-08-16T15:21:50.204Z,30.96
2018-08-16T15:24:19.220Z,31.01
2018-08-16T15:26:47.183Z,30.91
2018-08-16T15:29:14.704Z,30.88
2018-08-16T15:31:42.299Z,30.81
2018-08-16T15:34:09.836Z,30.71
2018-08-16T15:36:37.376Z,30.57
2018-08-16T15:39:06.233Z,30.70
2018-08-16T15:41:33.755Z,30.71
2018-08-16T15:44:02.163Z,30.81
2018-08-16T15:46:29.716Z,30.66
2018-08-16T15:48:57.251Z,30.65
2018-08-16T15:51:24.791Z,30.60
2018-08-16T15:53:52.297Z,30.66
2018-08-16T15:56:19.839Z,30.60
2018-08-16T15:58:47.370Z,30.59
2018-08-16T16:01:15.076Z,30.55
2018-08-16T16:03:42.631Z,30.58
2018-08-16T16:06:10.310Z,30.52
2018-08-16T16:08:37.717Z,30.54
2018-08-16T16:11:05.284Z,30.44
2018-08-16T16:13:32.824Z,30.50
2018-08-16T16:16:00.328Z,30.46
2018-08-16T16:18:27.866Z,30.46
2018-08-16T16:20:55.376Z,30.55
2018-08-16T16:23:22.935Z,30.65
2018-08-16T16:25:50.473Z,30.70
2018-08-16T16:28:18.007Z,30.70
2018-08-16T16:30:45.567Z,30.66
2018-08-16T16:33:13.115Z,30.65
2018-08-16T16:35:40.636Z,30.64
2018-08-16T16:38:08.180Z,30.57
2018-08-16T16:40:35.800Z,30.54
2018-08-16T16:43:03.339Z,30.49
2018-08-16T16:45:30.875Z,30.45
2018-08-16T16:47:58.414Z,30.42
2018-08-16T16:50:26.021Z,30.42
2018-08-16T16:52:53.583Z,30.49
2018-08-16T16:55:21.089Z,30.45
2018-08-16T16:57:48.608Z,30.35
2018-08-16T17:00:16.111Z,30.23
2018-08-16T17:02:43.660Z,30.26
2018-08-16T17:05:11.455Z,30.18
2018-08-16T17:07:39.064Z,30.12
2018-08-16T17:10:07.466Z,30.05
2018-08-16T17:12:34.992Z,29.96
2018-08-16T17:15:02.532Z,29.97
2018-08-16T17:17:30.060Z,29.96
2018-08-16T17:19:57.660Z,29.89
2018-08-16T17:22:25.228Z,29.82
2018-08-16T17:24:52.808Z,29.75
2018-08-16T17:27:20.368Z,29.66
2018-08-16T17:29:47.882Z,29.60
2018-08-16T17:33:29.502Z,29.48
2018-08-16T17:36:16.543Z,29.47
2018-08-16T17:38:44.067Z,29.43
2018-08-16T17:41:11.632Z,29.40
2018-08-16T17:43:39.172Z,29.30
2018-08-16T17:46:06.688Z,29.20
2018-08-16T17:48:34.272Z,29.09
2018-08-16T17:51:01.797Z,29.06
2018-08-16T17:53:29.330Z,29.04
2018-08-16T18:19:48.443Z,27.13
2018-08-16T18:22:15.992Z,27.18
2018-08-16T18:24:43.537Z,27.26
2018-08-16T18:27:11.054Z,27.37
2018-08-16T18:32:57.280Z,25.73
2018-08-16T18:38:41.237Z,29.41
2018-08-16T18:41:09.993Z,29.69
2018-08-16T18:43:38.276Z,29.88
2018-08-16T18:46:06.812Z,29.95
2018-08-16T18:48:35.205Z,30.00
2018-08-16T18:51:03.440Z,30.01
2018-08-16T18:53:31.726Z,30.05
2018-08-16T18:56:00.029Z,30.03
2018-08-16T18:58:28.308Z,29.96
2018-08-16T19:00:56.545Z,29.79
2018-08-16T19:03:24.860Z,29.62
2018-08-16T19:05:53.085Z,29.47
2018-08-16T19:08:21.416Z,29.41
2018-08-16T19:10:49.651Z,29.30
2018-08-16T19:13:17.956Z,29.28
2018-08-16T19:15:46.332Z,29.18
2018-08-16T19:18:14.568Z,29.14
2018-08-16T19:20:43.029Z,28.97
2018-08-16T19:23:11.329Z,29.10
2018-08-16T19:25:39.647Z,29.09
2018-08-16T19:28:07.895Z,29.11
2018-08-16T19:30:36.156Z,29.13
2018-08-16T19:33:04.429Z,29.11
2018-08-16T19:35:32.684Z,29.05
2018-08-16T19:38:00.949Z,29.06
2018-08-16T19:40:29.208Z,29.02
2018-08-16T19:42:57.436Z,28.93
2018-08-16T19:45:25.733Z,28.85
2018-08-16T19:47:53.973Z,28.75
2018-08-16T19:50:22.280Z,28.54
2018-08-16T19:52:50.526Z,28.35
2018-08-16T19:55:18.809Z,27.99
2018-08-16T19:57:47.288Z,27.78
2018-08-16T20:00:15.569Z,27.78
2018-08-16T20:02:43.808Z,27.79
2018-08-16T20:05:12.041Z,27.60
2018-08-16T20:07:40.264Z,27.55
2018-08-16T20:10:09.496Z,27.57
2018-08-16T20:12:38.032Z,27.53
2018-08-16T20:15:07.315Z,27.59
2018-08-16T20:17:36.302Z,27.59
2018-08-16T20:20:06.096Z,27.62
2018-08-16T20:22:34.664Z,27.72
2018-08-16T20:25:03.661Z,27.77
2018-08-16T20:27:31.908Z,27.81
2018-08-16T20:30:00.316Z,27.80
2018-08-16T20:32:28.584Z,27.88
2018-08-16T20:34:57.012Z,27.86
2018-08-16T20:37:25.248Z,27.87
2018-08-16T20:39:53.692Z,27.87
2018-08-16T20:42:21.924Z,27.83
2018-08-16T20:44:50.201Z,27.83
2018-08-16T20:47:18.424Z,27.80
2018-08-16T20:49:46.776Z,27.77
2018-08-16T20:52:15.096Z,27.71
2018-08-16T20:54:43.367Z,27.71
2018-08-16T20:57:11.671Z,27.65
2018-08-16T20:59:39.937Z,27.62
2018-08-16T21:02:08.238Z,27.58
2018-08-16T21:04:36.668Z,27.55
2018-08-16T21:07:05.202Z,27.43
2018-08-16T21:09:33.556Z,27.38
2018-08-16T21:12:01.884Z,27.39
2018-08-16T21:14:30.149Z,27.39
2018-08-16T21:16:58.408Z,27.35
2018-08-16T21:19:26.921Z,27.32
2018-08-16T21:21:55.184Z,27.32
2018-08-16T21:24:23.431Z,27.30
2018-08-16T21:26:51.801Z,27.25
2018-08-16T21:29:20.037Z,27.24
2018-08-16T21:31:48.304Z,27.21
2018-08-16T21:34:16.612Z,27.19
2018-08-16T21:36:44.866Z,27.12
2018-08-16T21:39:13.470Z,27.06
2018-08-16T21:41:41.732Z,27.02
2018-08-16T21:44:10.829Z,26.97
2018-08-16T21:46:39.088Z,26.94
2018-08-16T21:51:44.948Z,26.84
2018-08-16T21:54:13.188Z,26.81
2018-08-16T21:56:41.456Z,26.72
2018-08-16T21:59:09.716Z,26.62
2018-08-16T22:01:37.975Z,26.47
2018-08-16T22:04:06.204Z,26.22
2018-08-16T22:06:45.664Z,25.99
2018-08-16T22:09:13.932Z,25.84
2018-08-16T22:11:42.180Z,25.81
2018-08-16T22:14:10.449Z,25.83
2018-08-16T22:16:38.696Z,25.88
2018-08-16T22:19:06.928Z,25.89
2018-08-16T22:21:35.278Z,25.86
2018-08-16T22:24:03.528Z,25.87
2018-08-16T22:26:31.776Z,25.91
2018-08-16T22:29:00.010Z,25.91
2018-08-16T22:31:28.292Z,25.91
2018-08-16T22:33:56.585Z,25.96
2018-08-16T22:36:24.807Z,26.00
2018-08-16T22:38:53.057Z,26.01
2018-08-16T22:41:21.327Z,26.06
2018-08-16T22:43:49.589Z,26.10
2018-08-16T22:46:17.831Z,26.13
2018-08-16T22:48:46.076Z,26.13
2018-08-16T22:51:14.352Z,26.06
2018-08-16T22:53:42.588Z,26.06
2018-08-16T22:56:10.852Z,26.09
2018-08-16T22:58:39.115Z,26.10
2018-08-16T23:01:07.513Z,26.10
2018-08-16T23:03:35.780Z,26.08
2018-08-16T23:06:04.024Z,26.07
2018-08-16T23:08:32.276Z,26.05
2018-08-16T23:11:00.524Z,26.03
2018-08-16T23:13:28.812Z,26.01
2018-08-16T23:15:57.052Z,26.00
2018-08-16T23:18:25.366Z,25.96
2018-08-16T23:20:53.646Z,25.93
2018-08-16T23:23:21.897Z,25.87
2018-08-16T23:25:50.132Z,25.85
2018-08-16T23:28:18.439Z,25.84
2018-08-16T23:30:46.688Z,25.75
2018-08-16T23:33:14.932Z,25.72
2018-08-16T23:35:43.172Z,25.70
2018-08-16T23:38:11.428Z,25.65
2018-08-16T23:40:39.712Z,25.64
2018-08-16T23:43:08.324Z,25.56
2018-08-16T23:45:36.560Z,25.51
2018-08-16T23:48:16.316Z,25.40
2018-08-16T23:50:44.580Z,25.30
2018-08-16T23:53:12.851Z,25.20
2018-08-16T23:55:41.089Z,25.11
2018-08-16T23:58:09.356Z,25.08
